createdAt,value
2023-01-19T00:06:36.246Z,-0.5
2023-01-19T00:22:10.623Z,-0.7
2023-01-19T00:37:44.921Z,-0.9
2023-01-19T00:53:19.226Z,-1.1
2023-01-19T01:08:53.505Z,-1.3
2023-01-19T01:24:27.777Z,-1.3
2023-01-19T01:40:02.146Z,-1.5
2023-01-19T01:55:36.394Z,-1.5
2023-01-19T02:11:10.657Z,-1.5
2023-01-19T02:26:45.069Z,-1.7
2023-01-19T02:42:19.451Z,-1.7
2023-01-19T02:57:53.824Z,-1.7
2023-01-19T03:13:28.527Z,-1.7
2023-01-19T03:29:02.884Z,-1.8
2023-01-19T03:44:37.260Z,-2.1
2023-01-19T04:00:11.594Z,-2.2
2023-01-19T04:15:46.017Z,-2.2
2023-01-19T04:31:20.774Z,-2.3
2023-01-19T04:46:55.088Z,-2.3
2023-01-19T05:02:29.846Z,-2.4
2023-01-19T05:18:04.261Z,-2.1
2023-01-19T05:33:38.551Z,-2.1
2023-01-19T05:49:12.928Z,-2.1
2023-01-19T06:04:47.449Z,-2.3
2023-01-19T06:20:22.038Z,-2.2
2023-01-19T06:35:56.372Z,-2.2
2023-01-19T06:51:30.677Z,-2.1
2023-01-19T07:07:04.946Z,-2.1
2023-01-19T07:22:39.254Z,-2.1
2023-01-19T07:38:13.777Z,-2.2
2023-01-19T07:53:48.044Z,-2.1
2023-01-19T08:09:22.152Z,-1.9
2023-01-19T08:24:56.651Z,-1.3
2023-01-19T08:40:31.270Z,-0.2
2023-01-19T08:56:05.602Z,0.8
2023-01-19T09:11:39.997Z,1.9
2023-01-19T09:27:14.461Z,2.2
2023-01-19T09:42:49.074Z,2.1
2023-01-19T09:58:23.767Z,2.2
2023-01-19T10:13:58.100Z,1.9
2023-01-19T10:29:32.554Z,1.6
2023-01-19T10:45:07.190Z,1.5
2023-01-19T11:00:42.256Z,1.5
2023-01-19T11:16:16.872Z,2.3
2023-01-19T11:31:51.650Z,3.2
2023-01-19T11:47:26.174Z,4.2
2023-01-19T12:03:00.986Z,5.6
2023-01-19T12:18:35.427Z,7.2
2023-01-19T12:34:09.858Z,8.4
2023-01-19T12:49:44.260Z,8.9
2023-01-19T13:05:18.889Z,9.4
2023-01-19T13:20:53.417Z,9.2
2023-01-19T13:36:28.031Z,9.1
2023-01-19T13:52:02.493Z,7
2023-01-19T14:07:37.463Z,5.7
2023-01-19T14:23:11.883Z,5.3
2023-01-19T14:38:46.646Z,4.7
2023-01-19T14:54:21.016Z,4.4
2023-01-19T15:09:55.411Z,4.2
2023-01-19T15:25:29.834Z,4.1
2023-01-19T15:41:04.272Z,4
2023-01-19T15:56:38.671Z,4
2023-01-19T16:12:13.025Z,3.9
2023-01-19T16:27:47.397Z,3.8
2023-01-19T16:43:21.841Z,3.5
2023-01-19T16:58:56.209Z,3.6
2023-01-19T17:14:30.584Z,3.7
2023-01-19T17:30:04.949Z,3.8
2023-01-19T17:45:39.329Z,3.7
2023-01-19T18:01:14.168Z,3.3
2023-01-19T18:16:48.735Z,3.1
2023-01-19T18:32:23.097Z,3
2023-01-19T18:47:57.413Z,3.2
2023-01-19T19:03:31.743Z,3.4
2023-01-19T19:19:06.175Z,3.5
2023-01-19T19:34:40.587Z,3.1
2023-01-19T19:50:16.077Z,3.3
2023-01-19T20:05:50.451Z,3.3
2023-01-19T20:21:24.873Z,3.3
2023-01-19T20:36:59.251Z,3.2
2023-01-19T20:52:33.599Z,3.1
2023-01-19T21:08:07.950Z,3.3
2023-01-19T21:23:42.318Z,3.3
2023-01-19T21:39:18.954Z,3.2
2023-01-19T21:54:53.302Z,3.2
2023-01-19T22:10:27.403Z,3.1
2023-01-19T22:26:01.801Z,3.1
2023-01-19T22:41:36.159Z,3.1
2023-01-19T22:57:10.523Z,3
2023-01-19T23:12:44.896Z,2.9
2023-01-19T23:28:19.262Z,2.8
2023-01-19T23:43:53.591Z,3.1
2023-01-19T23:59:27.929Z,2.9
